CYGX

Gillam Airport

Gillam, Manitoba, Canada
TAF CYGX 210638Z 2107/2119 14005KT P6SM SKC FM211500 06006KT P6SM SCT060 TEMPO 2115/2119 P6SM -SHRA BKN060 BECMG 2116/2118 VRB03KT RMK NXT FCST BY 211300Z
Issued Valid From Valid To
Jul-21 @ 06:38 UTC
(3 hours ago)
Jul-21 @ 07:00 UTC
(3 hours ago)
Jul-21 @ 19:00 UTC
(in 9 hours)
Jul-21 @ 07:00 to Jul-21 @ 15:00
TAF CYGX 210638Z 2107/2119 14005KT P6SM SKC
Wind Visibility Clouds
140° at 5 knots Greater than 6 miles
  • Clear skies
From Jul-21 @ 15:00 to Jul-21 @ 16:00
FM211500 06006KT P6SM SCT060
Wind Visibility Clouds
60° at 6 knots Greater than 6 miles
  • Scattered at 6,000' AGL
Temporary Jul-21 @ 15:00 to Jul-21 @ 19:00
TEMPO 2115/2119 P6SM -SHRA BKN060
Visibility Clouds Conditions
Greater than 6 miles
  • Broken at 6,000' AGL
  • Light Rain
Becoming Jul-21 @ 16:00 to Jul-21 @ 19:00
BECMG 2116/2118 VRB03KT RMK NXT FCST BY 211300Z
Wind Visibility Clouds
Variable at 3 knots Greater than 6 miles
  • Scattered at 6,000' AGL
TAF CYGX 210638Z 2107/2119 14005KT P6SM SKC FM211500 06006KT P6SM SCT060 TEMPO 2115/2119 P6SM -SHRA BKN060 BECMG 2116/2118 VRB03KT RMK NXT FCST BY 211300Z
Issued Jul-21 @ 06:38 UTC
(3 hours ago)
Valid From Jul-21 @ 07:00 UTC
(3 hours ago)
Valid To Jul-21 @ 19:00 UTC
(in 9 hours)
Jul-21 @ 07:00 - Jul-21 @ 15:00
Wind Visibility
140° at 5 knots Greater than 6 miles
Clouds
  • Clear skies
From Jul-21 @ 15:00 - Jul-21 @ 16:00
Wind Visibility
60° at 6 knots Greater than 6 miles
Clouds
  • Scattered at 6,000' AGL
Temporary Jul-21 @ 15:00 - Jul-21 @ 19:00
Clouds
  • Broken at 6,000' AGL
Conditions
  • Light Rain
Becoming Jul-21 @ 16:00 - Jul-21 @ 19:00
Wind Visibility
Variable at 3 knots Greater than 6 miles
Clouds
  • Scattered at 6,000' AGL